createdAt,value
2019-05-02T00:01:45.315Z,64.22
2019-05-02T00:07:14.394Z,63.25
2019-05-02T00:12:54.345Z,55.85
2019-05-02T00:15:27.630Z,61.30
2019-05-02T00:18:09.675Z,68.12
2019-05-02T00:21:06.891Z,82.30
2019-05-02T00:24:02.858Z,77.60
2019-05-02T00:26:50.566Z,85.65
2019-05-02T00:29:45.579Z,80.85
2019-05-02T00:32:28.568Z,74.07
2019-05-02T00:35:40.903Z,68.42
2019-05-02T00:38:18.084Z,73.42
2019-05-02T00:54:07.495Z,66.97
2019-05-02T00:57:23.726Z,71.37
2019-05-02T01:03:47.239Z,66.37
2019-05-02T01:06:32.723Z,69.62
2019-05-02T01:09:13.846Z,64.92
2019-05-02T01:18:12.121Z,64.32
2019-05-02T01:20:58.087Z,62.10
2019-05-02T01:27:10.194Z,57.00
2019-05-02T01:30:13.594Z,63.28
2019-05-02T01:35:17.654Z,85.90
2019-05-02T01:38:06.403Z,93.70
2019-05-02T01:40:48.171Z,84.62
2019-05-02T01:43:59.990Z,75.10
2019-05-02T01:46:35.960Z,86.87
2019-05-02T01:52:32.496Z,72.78
2019-05-02T01:55:24.548Z,71.62
2019-05-02T01:58:05.933Z,71.40
2019-05-02T02:01:43.993Z,77.75
2019-05-02T02:04:08.775Z,75.55
2019-05-02T02:07:35.692Z,88.12
2019-05-02T02:10:14.953Z,86.45
2019-05-02T02:13:04.646Z,77.00
2019-05-02T02:15:35.104Z,72.70
2019-05-02T02:18:48.405Z,73.90
2019-05-02T02:24:38.384Z,71.95
2019-05-02T02:27:14.145Z,82.82
2019-05-02T02:29:58.087Z,80.55
2019-05-02T02:35:25.946Z,90.15
2019-05-02T02:41:54.240Z,98.72
2019-05-02T02:50:45.470Z,105.20
2019-05-02T02:54:03.609Z,95.03
2019-05-02T02:56:21.190Z,94.87
2019-05-02T03:05:25.908Z,95.62
2019-05-02T03:08:22.507Z,94.77
2019-05-02T03:14:00.073Z,92.40
2019-05-02T03:16:40.312Z,93.35
2019-05-02T03:19:21.096Z,93.55
2019-05-02T03:27:57.602Z,98.12
2019-05-02T03:30:49.255Z,99.77
2019-05-02T03:34:01.196Z,98.97
2019-05-02T03:37:14.249Z,92.12
2019-05-02T03:43:18.939Z,93.17
2019-05-02T03:46:13.566Z,95.10
2019-05-02T03:49:40.803Z,101.50
2019-05-02T03:52:36.702Z,103.25
2019-05-02T03:59:00.553Z,93.95
2019-05-02T04:04:44.008Z,89.87
2019-05-02T04:07:40.847Z,91.65
2019-05-02T04:11:10.264Z,90.12
2019-05-02T04:13:42.932Z,94.15
2019-05-02T04:20:22.653Z,95.20
2019-05-02T04:29:31.264Z,88.92
2019-05-02T04:32:28.035Z,83.62
2019-05-02T04:35:28.697Z,80.05
2019-05-02T04:38:15.236Z,85.77
2019-05-02T04:44:10.248Z,73.57
2019-05-02T04:46:48.898Z,78.42
2019-05-02T04:49:22.169Z,80.67
2019-05-02T04:52:17.142Z,83.62
2019-05-02T05:00:45.018Z,76.97
2019-05-02T05:03:20.981Z,81.40
2019-05-02T05:06:19.344Z,84.32
2019-05-02T05:08:58.638Z,78.83
2019-05-02T05:11:27.454Z,78.65
2019-05-02T05:14:00.506Z,84.22
2019-05-02T05:16:37.312Z,76.95
2019-05-02T05:21:58.820Z,76.05
2019-05-02T05:27:37.678Z,75.90
2019-05-02T05:30:18.035Z,76.05
2019-05-02T05:33:21.471Z,78.78
2019-05-02T05:35:58.518Z,76.50
2019-05-02T05:38:58.372Z,73.72
2019-05-02T05:42:17.810Z,72.72
2019-05-02T05:47:31.475Z,65.97
2019-05-02T05:53:12.292Z,67.90
2019-05-02T05:58:39.962Z,68.00
2019-05-02T06:04:00.369Z,64.58
2019-05-02T06:06:47.957Z,62.75
2019-05-02T06:09:42.473Z,63.08
2019-05-02T06:12:35.570Z,58.92
2019-05-02T06:15:16.837Z,56.70
2019-05-02T06:18:12.542Z,56.77
2019-05-02T06:20:58.357Z,57.78
2019-05-02T06:23:57.577Z,56.68
2019-05-02T06:27:12.666Z,56.73
2019-05-02T06:30:09.399Z,55.73
2019-05-02T06:35:51.735Z,58.83
2019-05-02T06:38:31.990Z,53.52
2019-05-02T06:44:03.878Z,53.87
2019-05-02T06:47:05.588Z,49.27
2019-05-02T06:50:00.662Z,56.45
2019-05-02T06:52:54.020Z,47.95
2019-05-02T06:58:42.008Z,45.75
2019-05-02T07:01:21.444Z,48.58
2019-05-02T07:04:24.894Z,47.08
2019-05-02T07:06:58.919Z,42.53
2019-05-02T07:10:07.402Z,42.58
2019-05-02T07:12:51.290Z,41.45
2019-05-02T07:16:03.551Z,44.10
2019-05-02T07:18:47.618Z,43.30
2019-05-02T07:21:47.272Z,45.70
2019-05-02T07:27:28.387Z,43.42
2019-05-02T07:33:24.563Z,43.85
2019-05-02T07:36:19.127Z,45.35
2019-05-02T07:45:16.165Z,46.13
2019-05-02T07:54:06.491Z,41.55
2019-05-02T07:56:53.423Z,43.00
2019-05-02T07:59:26.048Z,42.60
2019-05-02T08:02:25.021Z,45.43
2019-05-02T08:05:15.701Z,40.98
2019-05-02T08:08:20.417Z,44.38
2019-05-02T08:14:10.526Z,44.20
2019-05-02T08:17:28.269Z,41.98
2019-05-02T08:19:53.634Z,41.08
2019-05-02T08:22:54.624Z,42.53
2019-05-02T08:31:53.394Z,41.20
2019-05-02T08:34:40.454Z,41.58
2019-05-02T08:43:54.355Z,40.35
2019-05-02T08:53:28.616Z,34.70
2019-05-02T08:55:29.906Z,38.83
2019-05-02T09:07:13.775Z,34.75
2019-05-02T09:19:35.229Z,36.10
2019-05-02T09:22:19.626Z,30.35
2019-05-02T09:31:23.389Z,32.40
2019-05-02T09:34:07.712Z,32.20
2019-05-02T09:40:02.041Z,30.25
2019-05-02T09:42:39.467Z,30.88
2019-05-02T09:50:44.640Z,27.37
2019-05-02T09:56:19.398Z,28.00
2019-05-02T09:58:49.373Z,25.85
2019-05-02T10:01:19.904Z,26.75
2019-05-02T10:07:16.520Z,27.50
2019-05-02T10:09:45.130Z,30.00
2019-05-02T10:12:14.583Z,29.27
2019-05-02T10:15:28.208Z,31.07
2019-05-02T10:18:10.268Z,30.35
2019-05-02T10:20:33.184Z,29.37
2019-05-02T10:22:59.597Z,26.82
2019-05-02T10:25:32.814Z,30.60
2019-05-02T10:27:58.736Z,35.20
2019-05-02T10:30:29.033Z,36.20
2019-05-02T10:32:57.702Z,35.33
2019-05-02T10:38:18.006Z,41.80
2019-05-02T10:40:42.458Z,38.45
2019-05-02T10:43:32.662Z,35.00
2019-05-02T10:46:02.472Z,39.75
2019-05-02T10:48:33.212Z,31.35
2019-05-02T10:51:18.561Z,35.60
2019-05-02T10:53:51.678Z,37.05
2019-05-02T10:56:17.381Z,35.73
2019-05-02T10:58:46.106Z,35.03
2019-05-02T11:01:21.858Z,37.33
2019-05-02T11:03:51.949Z,37.28
2019-05-02T11:06:22.255Z,40.05
2019-05-02T11:08:52.389Z,39.78
2019-05-02T11:11:22.082Z,35.90
2019-05-02T11:14:05.782Z,36.73
2019-05-02T11:19:32.550Z,31.07
2019-05-02T11:22:05.292Z,29.37
2019-05-02T11:25:18.021Z,30.72
2019-05-02T11:27:46.352Z,25.20
2019-05-02T11:30:16.718Z,24.65
2019-05-02T11:32:53.751Z,21.55
2019-05-02T11:35:27.948Z,18.87
2019-05-02T11:37:56.663Z,28.47
2019-05-02T11:40:25.799Z,23.05
2019-05-02T11:42:57.302Z,24.92
2019-05-02T11:46:05.540Z,23.87
2019-05-02T11:51:42.120Z,24.37
2019-05-02T11:54:12.956Z,20.52
2019-05-02T11:56:48.968Z,21.12
2019-05-02T11:59:14.791Z,17.40
2019-05-02T12:01:56.967Z,19.30
2019-05-02T12:07:22.960Z,14.90
2019-05-02T12:09:56.849Z,17.80
2019-05-02T12:12:22.723Z,13.13
2019-05-02T12:14:52.801Z,19.62
2019-05-02T12:17:24.096Z,20.80
2019-05-02T12:20:33.964Z,16.48
2019-05-02T12:33:17.851Z,21.82
2019-05-02T12:39:15.654Z,15.73
2019-05-02T12:41:47.763Z,15.90
2019-05-02T12:44:42.597Z,16.75
2019-05-02T12:47:11.928Z,16.40
2019-05-02T12:49:42.404Z,15.20
2019-05-02T12:52:12.917Z,17.80
2019-05-02T12:54:41.747Z,85.85
2019-05-02T12:57:12.351Z,20.40
2019-05-02T12:59:41.678Z,20.30
2019-05-02T13:02:12.248Z,31.07
2019-05-02T13:04:41.879Z,20.25
2019-05-02T13:07:12.644Z,23.57
2019-05-02T13:09:42.026Z,20.72
2019-05-02T13:12:13.396Z,23.67
2019-05-02T13:14:42.390Z,18.92
2019-05-02T13:17:12.001Z,15.60
2019-05-02T13:19:48.386Z,19.02
2019-05-02T13:22:15.688Z,20.25
2019-05-02T13:24:47.123Z,20.75
2019-05-02T13:27:18.042Z,25.08
2019-05-02T13:29:48.082Z,17.17
2019-05-02T13:32:18.945Z,13.30
2019-05-02T13:34:57.122Z,13.68
2019-05-02T13:48:23.442Z,13.48
2019-05-02T13:50:52.398Z,10.78
2019-05-02T13:53:22.698Z,10.10
2019-05-02T13:58:43.599Z,12.05
2019-05-02T14:01:12.400Z,11.83
2019-05-02T14:03:42.050Z,10.18
2019-05-02T14:06:12.358Z,9.85
2019-05-02T14:08:48.819Z,10.98
2019-05-02T14:11:35.347Z,14.07
2019-05-02T14:14:04.161Z,12.10
2019-05-02T14:16:32.947Z,14.10
2019-05-02T14:19:02.964Z,11.90
2019-05-02T14:21:32.270Z,10.03
2019-05-02T14:24:01.686Z,10.43
2019-05-02T14:26:32.701Z,13.72
2019-05-02T14:29:02.553Z,10.50
2019-05-02T14:31:32.351Z,11.95
2019-05-02T14:34:19.251Z,13.08
2019-05-02T14:36:48.058Z,12.43
2019-05-02T14:39:16.867Z,8.45
2019-05-02T14:41:45.646Z,14.47
2019-05-02T14:44:18.007Z,12.03
2019-05-02T14:46:44.730Z,10.25
2019-05-02T14:49:16.618Z,11.55
2019-05-02T14:51:44.194Z,12.28
2019-05-02T14:54:12.997Z,12.55
2019-05-02T14:56:47.571Z,10.13
2019-05-02T14:59:15.367Z,15.93
2019-05-02T15:01:47.029Z,13.60
2019-05-02T15:04:15.938Z,15.10
2019-05-02T15:06:47.440Z,15.32
2019-05-02T15:09:16.776Z,16.27
2019-05-02T15:12:02.935Z,13.20
2019-05-02T15:14:33.595Z,13.32
2019-05-02T15:17:02.851Z,11.43
2019-05-02T15:19:32.928Z,13.20
2019-05-02T15:22:02.444Z,12.93
2019-05-02T15:24:35.370Z,15.58
2019-05-02T15:27:05.538Z,15.32
2019-05-02T15:29:33.681Z,15.08
2019-05-02T15:37:35.980Z,13.85
2019-05-02T15:42:42.215Z,12.95
2019-05-02T15:45:12.471Z,16.87
2019-05-02T15:47:41.937Z,14.30
2019-05-02T15:50:14.787Z,19.30
2019-05-02T15:52:43.968Z,16.67
2019-05-02T15:55:12.841Z,15.72
2019-05-02T15:57:45.423Z,15.03
2019-05-02T16:00:15.523Z,18.70
2019-05-02T16:02:44.344Z,17.20
2019-05-02T16:05:13.865Z,14.23
2019-05-02T16:07:45.519Z,16.93
2019-05-02T16:10:13.508Z,19.60
2019-05-02T16:12:43.879Z,16.60
2019-05-02T16:15:18.178Z,14.05
2019-05-02T16:17:45.011Z,17.42
2019-05-02T16:20:26.347Z,18.52
2019-05-02T16:22:55.626Z,17.57
2019-05-02T16:25:26.039Z,14.85
2019-05-02T16:28:00.467Z,16.15
2019-05-02T16:30:27.732Z,17.67
2019-05-02T16:32:59.011Z,15.18
2019-05-02T16:35:30.788Z,17.52
2019-05-02T16:38:00.298Z,18.02
2019-05-02T16:40:32.349Z,16.30
2019-05-02T16:43:02.906Z,14.55
2019-05-02T16:45:33.078Z,15.83
2019-05-02T16:48:03.323Z,22.67
2019-05-02T16:50:36.663Z,12.85
2019-05-02T16:53:06.703Z,14.93
2019-05-02T16:59:21.383Z,17.50
2019-05-02T17:02:12.644Z,12.93
2019-05-02T17:05:09.526Z,14.10
2019-05-02T17:07:40.717Z,13.25
2019-05-02T17:10:14.625Z,15.70
2019-05-02T17:13:09.922Z,14.18
2019-05-02T17:16:04.052Z,12.00
2019-05-02T17:19:13.515Z,14.83
2019-05-02T17:21:53.077Z,16.80
2019-05-02T17:24:21.952Z,15.98
2019-05-02T17:36:34.076Z,14.55
2019-05-02T17:54:43.831Z,9.90
2019-05-02T17:57:42.003Z,16.62
2019-05-02T18:00:29.368Z,30.50
2019-05-02T18:06:07.511Z,33.08
2019-05-02T18:08:55.155Z,36.13
2019-05-02T18:11:36.381Z,40.35
2019-05-02T18:17:14.615Z,45.98
2019-05-02T18:20:17.908Z,45.55
2019-05-02T18:22:49.106Z,41.63
2019-05-02T18:25:25.110Z,43.20
2019-05-02T18:27:55.536Z,41.20
2019-05-02T18:31:08.678Z,47.23
2019-05-02T18:33:44.058Z,45.25
2019-05-02T18:36:26.676Z,50.48
2019-05-02T18:45:34.246Z,50.10
2019-05-02T18:48:06.746Z,50.50
2019-05-02T18:50:44.302Z,57.67
2019-05-02T18:53:23.483Z,49.93
2019-05-02T18:58:40.687Z,49.58
2019-05-02T19:01:08.615Z,53.10
2019-05-02T19:03:37.176Z,52.10
2019-05-02T19:06:07.565Z,52.35
2019-05-02T19:08:59.468Z,54.65
2019-05-02T19:11:33.658Z,51.90
2019-05-02T19:13:58.175Z,56.98
2019-05-02T19:16:28.883Z,55.63
2019-05-02T19:18:58.017Z,54.45
2019-05-02T19:21:32.037Z,52.20
2019-05-02T19:23:58.176Z,56.53
2019-05-02T19:26:30.123Z,52.43
2019-05-02T19:29:08.289Z,51.92
2019-05-02T19:31:44.289Z,50.05
2019-05-02T19:34:22.803Z,55.73
2019-05-02T19:36:52.859Z,52.33
2019-05-02T19:39:43.609Z,55.40
2019-05-02T19:44:43.914Z,51.95
2019-05-02T19:47:15.785Z,44.45
2019-05-02T19:49:52.233Z,38.95
2019-05-02T19:52:42.877Z,43.00
2019-05-02T19:55:19.971Z,41.63
2019-05-02T19:57:46.803Z,29.00
2019-05-02T20:00:28.883Z,25.00
2019-05-02T20:03:21.888Z,22.10
2019-05-02T20:05:45.280Z,14.73
2019-05-02T20:14:10.290Z,14.98
2019-05-02T20:16:45.873Z,13.60
2019-05-02T20:19:17.293Z,14.18
2019-05-02T20:22:06.514Z,14.63
2019-05-02T20:27:58.221Z,17.02
2019-05-02T20:30:46.273Z,15.20
2019-05-02T20:36:02.570Z,15.10
2019-05-02T20:41:12.798Z,15.38
2019-05-02T20:43:44.943Z,16.35
2019-05-02T20:46:37.933Z,19.27
2019-05-02T20:49:30.086Z,22.87
2019-05-02T20:52:06.289Z,18.80
2019-05-02T21:06:16.089Z,19.82
2019-05-02T21:09:03.355Z,23.45
2019-05-02T21:11:37.635Z,23.30
2019-05-02T21:14:12.190Z,23.65
2019-05-02T21:16:39.147Z,24.63
2019-05-02T21:19:12.364Z,23.65
2019-05-02T21:21:42.671Z,24.00
2019-05-02T21:24:12.118Z,24.43
2019-05-02T21:26:42.318Z,27.17
2019-05-02T21:29:12.136Z,26.02
2019-05-02T21:31:42.519Z,26.05
2019-05-02T21:34:11.775Z,23.65
2019-05-02T21:36:42.398Z,23.38
2019-05-02T21:39:12.496Z,27.27
2019-05-02T21:41:42.332Z,22.90
2019-05-02T21:44:12.955Z,24.75
2019-05-02T21:46:42.342Z,24.18
2019-05-02T21:49:14.509Z,25.12
2019-05-02T21:51:48.280Z,24.12
2019-05-02T21:57:06.452Z,23.57
2019-05-02T21:59:35.020Z,21.33
2019-05-02T22:02:04.497Z,23.35
2019-05-02T22:04:33.037Z,22.85
2019-05-02T22:07:02.053Z,25.27
2019-05-02T22:09:32.357Z,19.92
2019-05-02T22:12:00.965Z,23.20
2019-05-02T22:14:29.643Z,22.60
2019-05-02T22:16:58.630Z,20.43
2019-05-02T22:19:27.282Z,21.02
2019-05-02T22:21:55.923Z,22.93
2019-05-02T22:24:24.495Z,18.55
2019-05-02T22:26:53.374Z,19.20
2019-05-02T22:29:22.149Z,20.88
2019-05-02T22:31:54.560Z,16.35
2019-05-02T22:34:22.937Z,20.75
2019-05-02T22:36:53.875Z,16.97
2019-05-02T22:39:43.734Z,18.65
2019-05-02T22:42:12.879Z,21.15
2019-05-02T22:47:49.273Z,20.70
2019-05-02T22:50:17.928Z,18.42
2019-05-02T22:52:46.532Z,16.55
2019-05-02T22:55:15.243Z,22.27
2019-05-02T22:57:48.215Z,19.10
2019-05-02T23:00:17.325Z,19.00
2019-05-02T23:02:46.239Z,21.87
2019-05-02T23:05:15.057Z,16.93
2019-05-02T23:07:44.961Z,17.23
2019-05-02T23:10:14.626Z,16.12
2019-05-02T23:12:47.767Z,16.07
2019-05-02T23:15:16.367Z,14.15
2019-05-02T23:17:44.980Z,14.40
2019-05-02T23:20:13.875Z,15.40
2019-05-02T23:22:42.463Z,16.35
2019-05-02T23:25:14.297Z,16.82
2019-05-02T23:27:44.645Z,17.70
2019-05-02T23:30:16.801Z,10.25
2019-05-02T23:32:45.650Z,16.65
2019-05-02T23:35:16.245Z,13.43
2019-05-02T23:37:49.024Z,14.73
2019-05-02T23:40:20.722Z,15.20
2019-05-02T23:42:54.801Z,12.20
2019-05-02T23:45:25.236Z,15.93
2019-05-02T23:48:02.152Z,12.15
2019-05-02T23:50:31.039Z,14.05
2019-05-02T23:52:59.616Z,14.33
2019-05-02T23:55:32.207Z,14.98
2019-05-02T23:58:11.964Z,15.30
